Time;durP1;ratioP1;P1;durP2;ratioP2;P2;SDS_P1;SDS_P2;PMS_P1;PMS_P2;Temp;Humidity;BMP_temperature;BMP_pressure;BME280_temperature;BME280_humidity;BME280_pressure;Samples;Min_cycle;Max_cycle;Signal;HPM_P1;HPM_P2
2022/03/25 00:01:54;;;;;;;29.80;22.20;;;20.70;33.80;;;;;;5057570;28;20028;-83
2022/03/25 00:04:20;;;;;;;29.23;21.30;;;20.60;33.90;;;;;;5040405;28;20364;-83
2022/03/25 00:06:46;;;;;;;30.75;23.20;;;20.60;33.90;;;;;;5039719;28;20037;-82
2022/03/25 00:09:12;;;;;;;29.70;22.13;;;20.60;34.00;;;;;;5039925;28;20021;-82
2022/03/25 00:11:40;;;;;;;28.25;21.67;;;20.60;34.00;;;;;;5056897;28;20032;-83
2022/03/25 00:14:05;;;;;;;28.60;22.02;;;20.60;34.00;;;;;;5039740;28;20044;-82
2022/03/25 00:16:32;;;;;;;27.15;21.08;;;20.60;34.00;;;;;;5039572;28;20499;-83
2022/03/25 00:18:58;;;;;;;27.55;21.92;;;20.60;34.00;;;;;;5056363;28;20088;-82
2022/03/25 00:21:24;;;;;;;26.15;20.98;;;20.60;34.10;;;;;;5056921;28;20031;-82
2022/03/25 00:23:50;;;;;;;27.17;22.17;;;20.60;34.10;;;;;;5073971;28;20475;-83
2022/03/25 00:26:17;;;;;;;28.40;22.08;;;20.60;34.10;;;;;;5056149;28;20023;-81
2022/03/25 00:28:43;;;;;;;27.67;22.42;;;20.60;34.20;;;;;;5056136;28;20028;-83
2022/03/25 00:31:09;;;;;;;29.15;21.55;;;20.50;34.20;;;;;;5056274;28;20025;-83
2022/03/25 00:33:36;;;;;;;26.83;21.05;;;20.60;34.20;;;;;;5039873;28;20017;-82
2022/03/25 00:36:02;;;;;;;26.20;21.25;;;20.60;34.30;;;;;;5039603;28;20028;-82
2022/03/25 00:38:29;;;;;;;27.45;22.23;;;20.50;34.20;;;;;;5056283;28;20048;-83
2022/03/25 00:40:56;;;;;;;28.25;21.25;;;20.50;34.30;;;;;;5055646;28;20016;-82
2022/03/25 00:43:22;;;;;;;27.73;22.08;;;20.50;34.30;;;;;;5056450;28;20543;-84
2022/03/25 00:45:48;;;;;;;27.35;21.27;;;20.50;34.40;;;;;;5056197;28;20142;-82
2022/03/25 00:48:14;;;;;;;25.67;21.00;;;20.50;34.40;;;;;;5056434;28;20017;-82
2022/03/25 00:50:41;;;;;;;28.23;21.85;;;20.50;34.50;;;;;;5056131;28;20020;-82
2022/03/25 00:53:07;;;;;;;28.65;21.92;;;20.50;34.50;;;;;;5056740;28;20070;-84
2022/03/25 00:55:34;;;;;;;29.75;21.85;;;20.50;34.50;;;;;;5056725;28;20107;-82
2022/03/25 00:58:00;;;;;;;28.45;21.33;;;20.40;34.50;;;;;;5039431;28;20079;-84
2022/03/25 01:00:26;;;;;;;29.65;22.10;;;20.40;34.50;;;;;;5056935;28;20095;-83
2022/03/25 01:02:52;;;;;;;26.42;20.75;;;20.40;34.60;;;;;;5056205;28;20067;-82
2022/03/25 01:05:18;;;;;;;25.25;21.33;;;20.40;34.60;;;;;;5039641;28;20494;-82
2022/03/25 01:07:44;;;;;;;26.75;21.58;;;20.50;34.70;;;;;;5073684;28;20060;-83
2022/03/25 01:10:11;;;;;;;27.08;21.73;;;20.50;34.70;;;;;;5039958;28;20021;-82
2022/03/25 01:12:37;;;;;;;28.05;22.95;;;20.40;34.60;;;;;;5023314;28;20035;-82
2022/03/25 01:15:04;;;;;;;27.73;22.55;;;20.40;34.60;;;;;;5056343;28;20021;-83
2022/03/25 01:17:30;;;;;;;25.08;20.80;;;20.40;34.60;;;;;;5039707;28;20024;-83
2022/03/25 01:19:56;;;;;;;25.88;20.42;;;20.50;34.70;;;;;;5040405;28;20064;-82
2022/03/25 01:22:23;;;;;;;27.08;20.92;;;20.40;34.70;;;;;;5056251;28;20429;-82
2022/03/25 01:24:49;;;;;;;27.90;21.42;;;20.40;34.70;;;;;;5056306;28;20029;-84
2022/03/25 01:27:17;;;;;;;26.80;21.23;;;20.40;34.70;;;;;;5039524;28;20098;-83
2022/03/25 01:29:43;;;;;;;27.30;21.38;;;20.40;34.70;;;;;;5039428;28;20020;-82
2022/03/25 01:32:10;;;;;;;26.75;21.08;;;20.40;34.70;;;;;;5073830;28;20055;-83
2022/03/25 01:34:37;;;;;;;25.60;20.73;;;20.40;34.80;;;;;;5022800;28;20017;-82
2022/03/25 01:37:03;;;;;;;26.83;21.75;;;20.40;34.80;;;;;;5023204;28;20051;-82
2022/03/25 01:39:29;;;;;;;27.65;21.38;;;20.40;34.80;;;;;;5056010;28;20020;-83
2022/03/25 01:41:55;;;;;;;26.48;21.45;;;20.40;34.80;;;;;;5038543;28;20481;-82
2022/03/25 01:44:28;;;;;;;27.45;21.08;;;20.40;34.80;;;;;;5039142;28;20021;-83
2022/03/25 01:46:55;;;;;;;26.00;20.63;;;20.40;34.90;;;;;;5058118;28;20028;-84
2022/03/25 01:49:20;;;;;;;29.20;21.80;;;20.40;34.90;;;;;;5025946;28;20016;-83
2022/03/25 01:51:49;;;;;;;28.50;22.30;;;20.30;34.80;;;;;;5025512;28;20013;-83
2022/03/25 01:54:24;;;;;;;25.88;21.77;;;20.40;34.90;;;;;;5042001;28;20012;-84
2022/03/25 01:56:54;;;;;;;24.73;20.67;;;20.40;35.00;;;;;;5058024;28;20024;-82
2022/03/25 01:59:21;;;;;;;26.73;21.70;;;20.30;34.90;;;;;;5042103;28;20035;-83
2022/03/25 02:01:48;;;;;;;27.58;22.00;;;20.30;34.90;;;;;;5042557;28;20009;-83
2022/03/25 02:04:14;;;;;;;28.17;22.00;;;20.30;34.90;;;;;;5042118;28;20021;-84
2022/03/25 02:06:42;;;;;;;26.48;21.27;;;20.30;34.90;;;;;;5023079;28;20045;-82
2022/03/25 02:09:08;;;;;;;27.63;21.55;;;20.30;34.90;;;;;;5055541;28;20036;-84
2022/03/25 02:11:35;;;;;;;27.25;21.15;;;20.30;34.90;;;;;;5054929;28;20018;-83
2022/03/25 02:14:01;;;;;;;27.85;22.25;;;20.30;35.00;;;;;;5054206;28;20017;-83
2022/03/25 02:16:38;;;;;;;25.98;20.92;;;20.30;35.00;;;;;;5037472;28;20399;-83
2022/03/25 02:19:03;;;;;;;26.85;20.40;;;20.30;35.00;;;;;;5037406;28;20495;-82
2022/03/25 02:21:45;;;;;;;24.98;19.63;;;20.30;35.10;;;;;;5070531;28;20383;-36
2022/03/25 02:24:12;;;;;;;27.25;20.75;;;20.20;35.60;;;;;;5070330;28;20019;-37
2022/03/25 02:26:38;;;;;;;29.15;21.85;;;20.30;35.20;;;;;;5070455;28;20024;-33
2022/03/25 02:29:05;;;;;;;26.50;20.80;;;20.30;35.20;;;;;;5070584;28;20535;-33
2022/03/25 02:31:30;;;;;;;27.85;21.35;;;20.20;35.10;;;;;;5070490;28;20020;-34
2022/03/25 02:33:57;;;;;;;25.27;21.80;;;20.20;35.10;;;;;;5070159;28;20497;-36
2022/03/25 02:36:24;;;;;;;28.08;21.23;;;20.30;35.20;;;;;;5070277;28;20017;-34
2022/03/25 02:38:50;;;;;;;26.98;20.83;;;20.20;35.70;;;;;;5070352;28;20370;-34
2022/03/25 02:41:15;;;;;;;27.70;21.45;;;20.20;35.20;;;;;;5070044;28;20024;-34
2022/03/25 02:43:42;;;;;;;27.13;21.38;;;20.20;35.10;;;;;;5070328;28;20106;-34
2022/03/25 02:46:08;;;;;;;28.98;21.35;;;20.20;35.30;;;;;;5069829;28;20494;-34
2022/03/25 02:48:33;;;;;;;26.33;20.98;;;20.20;35.20;;;;;;5068631;28;20079;-34
2022/03/25 02:50:59;;;;;;;27.13;21.23;;;20.20;35.30;;;;;;5069689;28;20098;-34
2022/03/25 02:53:27;;;;;;;27.63;21.40;;;20.20;35.30;;;;;;5069553;28;20489;-34
2022/03/25 02:55:52;;;;;;;25.60;21.52;;;20.20;35.30;;;;;;5069629;28;20418;-34
2022/03/25 02:58:18;;;;;;;27.58;21.75;;;20.20;35.30;;;;;;5069438;28;20009;-34
2022/03/25 03:00:44;;;;;;;25.90;21.65;;;20.20;35.30;;;;;;5068182;28;20505;-34
2022/03/25 03:03:10;;;;;;;26.95;21.48;;;20.20;35.30;;;;;;5069311;28;20099;-34
2022/03/25 03:05:36;;;;;;;26.95;21.90;;;20.10;35.30;;;;;;5069546;28;20036;-34
2022/03/25 03:08:02;;;;;;;27.48;21.67;;;20.10;35.30;;;;;;5068207;28;20386;-34
2022/03/25 03:10:28;;;;;;;26.48;21.70;;;20.20;35.30;;;;;;5069583;28;20423;-37
2022/03/25 03:12:54;;;;;;;28.85;22.50;;;20.10;35.40;;;;;;5069095;28;20045;-36
2022/03/25 03:15:20;;;;;;;26.95;21.63;;;20.10;35.40;;;;;;5069114;28;20060;-36
2022/03/25 03:17:46;;;;;;;28.52;21.50;;;20.10;35.50;;;;;;5069277;28;20027;-36
2022/03/25 03:20:13;;;;;;;27.73;21.90;;;20.10;35.60;;;;;;5068946;28;20056;-34
2022/03/25 03:22:39;;;;;;;27.73;21.77;;;20.10;35.60;;;;;;5070028;28;20021;-36
2022/03/25 03:25:05;;;;;;;27.50;22.15;;;20.10;35.60;;;;;;5068890;28;20439;-36
2022/03/25 03:27:31;;;;;;;30.95;22.92;;;20.10;35.70;;;;;;5068925;28;20021;-34
2022/03/25 03:29:58;;;;;;;26.75;21.67;;;20.10;35.70;;;;;;5068757;28;20035;-34
2022/03/25 03:32:25;;;;;;;28.60;21.75;;;20.10;35.80;;;;;;5058282;28;20021;-34
2022/03/25 03:34:54;;;;;;;28.95;21.88;;;20.10;35.90;;;;;;5055945;28;20041;-35
2022/03/25 03:37:20;;;;;;;29.67;21.50;;;20.10;35.90;;;;;;5056038;28;20112;-34
2022/03/25 03:39:47;;;;;;;28.27;22.77;;;20.00;35.90;;;;;;5055659;28;20021;-35
2022/03/25 03:42:12;;;;;;;28.83;22.40;;;20.00;36.00;;;;;;5055705;28;20020;-34
2022/03/25 03:44:40;;;;;;;28.02;22.13;;;20.00;35.90;;;;;;5054551;28;20486;-35
2022/03/25 03:47:06;;;;;;;26.95;21.25;;;20.10;36.00;;;;;;5055926;28;20021;-35
2022/03/25 03:49:33;;;;;;;27.08;21.65;;;20.00;36.00;;;;;;5054200;28;20029;-34
2022/03/25 03:51:59;;;;;;;26.00;21.30;;;20.00;36.00;;;;;;5055481;28;20048;-34
2022/03/25 03:54:25;;;;;;;28.40;20.85;;;20.00;36.10;;;;;;5054074;28;20463;-34
2022/03/25 03:56:51;;;;;;;27.30;21.10;;;20.00;36.10;;;;;;5055107;28;20018;-34
2022/03/25 03:59:17;;;;;;;28.13;22.33;;;20.00;36.20;;;;;;5055130;28;20028;-34
2022/03/25 04:01:43;;;;;;;25.27;21.67;;;19.90;36.20;;;;;;5053986;28;20159;-34
2022/03/25 04:04:09;;;;;;;29.90;22.40;;;20.00;36.30;;;;;;5053888;28;20013;-34
2022/03/25 04:06:36;;;;;;;29.23;21.58;;;20.00;36.40;;;;;;5055263;28;20013;-34
2022/03/25 04:09:02;;;;;;;27.35;21.45;;;20.00;36.40;;;;;;5054929;28;20481;-34
2022/03/25 04:11:27;;;;;;;26.83;21.90;;;19.90;36.30;;;;;;5054807;28;20029;-35
2022/03/25 04:13:53;;;;;;;28.20;21.58;;;20.00;36.40;;;;;;5036897;28;20028;-35
2022/03/25 04:16:21;;;;;;;26.27;20.60;;;20.00;36.40;;;;;;5054690;28;20426;-35
2022/03/25 04:18:46;;;;;;;26.13;21.27;;;20.00;36.50;;;;;;5054753;28;20020;-35
2022/03/25 04:21:13;;;;;;;26.30;20.85;;;20.00;36.50;;;;;;5054491;28;20060;-35
2022/03/25 04:23:39;;;;;;;27.63;22.38;;;19.90;36.50;;;;;;5054870;28;20096;-35
2022/03/25 04:26:06;;;;;;;28.45;21.55;;;19.90;36.60;;;;;;5053399;28;20105;-35
2022/03/25 04:28:32;;;;;;;27.83;21.27;;;19.90;36.60;;;;;;5054699;28;20020;-35
2022/03/25 04:30:57;;;;;;;28.55;22.98;;;19.90;36.60;;;;;;5053336;28;20021;-35
2022/03/25 04:33:27;;;;;;;25.10;20.88;;;19.90;36.60;;;;;;5055101;28;20021;-35
2022/03/25 04:35:53;;;;;;;26.95;21.42;;;19.90;36.60;;;;;;5054692;28;20356;-35
2022/03/25 04:38:18;;;;;;;28.23;21.88;;;19.90;36.60;;;;;;5054965;28;20022;-35
2022/03/25 04:40:44;;;;;;;28.92;21.50;;;19.90;36.70;;;;;;5054847;28;20032;-36
2022/03/25 04:43:10;;;;;;;27.35;21.60;;;19.90;36.70;;;;;;5054296;28;20048;-35
2022/03/25 04:45:36;;;;;;;25.05;20.25;;;19.90;36.70;;;;;;5054963;28;20066;-36
2022/03/25 04:48:03;;;;;;;28.10;20.50;;;19.90;36.60;;;;;;5054420;28;20020;-35
2022/03/25 04:50:28;;;;;;;24.13;20.40;;;19.90;36.40;;;;;;5054332;28;20040;-35
2022/03/25 04:52:54;;;;;;;24.52;20.55;;;20.00;36.30;;;;;;5052927;28;20483;-35
2022/03/25 04:55:21;;;;;;;25.05;20.38;;;20.20;36.00;;;;;;5054418;28;20021;-35
2022/03/25 04:57:47;;;;;;;26.08;20.33;;;20.40;35.60;;;;;;5054561;28;20013;-35
2022/03/25 05:00:13;;;;;;;26.00;20.55;;;20.50;35.30;;;;;;5054361;28;20025;-35
2022/03/25 05:02:39;;;;;;;24.55;19.50;;;20.60;35.20;;;;;;5054013;28;20021;-35
2022/03/25 05:05:06;;;;;;;24.95;20.25;;;20.70;35.00;;;;;;5053966;28;20020;-35
2022/03/25 05:07:31;;;;;;;23.13;19.40;;;20.80;34.90;;;;;;5054025;28;20025;-35
2022/03/25 05:10:01;;;;;;;23.48;19.77;;;20.90;34.70;;;;;;5053878;28;20036;-35
2022/03/25 05:12:27;;;;;;;23.80;19.60;;;21.00;34.50;;;;;;5069426;28;20039;-35
2022/03/25 05:14:53;;;;;;;23.73;19.45;;;21.10;34.40;;;;;;5053929;28;20013;-35
2022/03/25 05:17:20;;;;;;;24.80;19.48;;;21.20;34.20;;;;;;5054064;28;20102;-35
2022/03/25 05:19:45;;;;;;;23.05;18.60;;;21.30;34.00;;;;;;5053476;28;20377;-35
2022/03/25 05:22:12;;;;;;;23.20;18.50;;;21.40;33.70;;;;;;5053493;28;20024;-35
2022/03/25 05:24:37;;;;;;;23.70;19.08;;;21.50;33.60;;;;;;5053365;28;20025;-35
2022/03/25 05:27:04;;;;;;;22.00;18.42;;;21.60;33.40;;;;;;5052534;28;20016;-35
2022/03/25 05:29:30;;;;;;;21.30;18.40;;;21.70;33.20;;;;;;5053634;28;20013;-35
2022/03/25 05:31:55;;;;;;;22.13;18.92;;;21.80;33.60;;;;;;5053374;28;20566;-35
2022/03/25 05:34:21;;;;;;;21.00;17.20;;;21.90;32.90;;;;;;5053185;28;20017;-35
2022/03/25 05:36:47;;;;;;;21.95;17.90;;;22.00;32.70;;;;;;5053513;28;20468;-35
2022/03/25 05:39:14;;;;;;;23.42;18.17;;;22.10;32.60;;;;;;5052046;28;20036;-35
2022/03/25 05:41:41;;;;;;;21.08;17.80;;;22.20;32.50;;;;;;5053370;28;20108;-35
2022/03/25 05:44:07;;;;;;;22.58;17.73;;;22.20;32.30;;;;;;5053086;28;20525;-35
2022/03/25 05:46:34;;;;;;;20.40;17.73;;;22.30;32.20;;;;;;5053300;28;20013;-35
2022/03/25 05:49:00;;;;;;;18.33;16.35;;;22.40;32.10;;;;;;5051877;28;20419;-35
2022/03/25 05:51:26;;;;;;;21.45;17.52;;;22.40;32.00;;;;;;5052113;28;20043;-35
2022/03/25 05:53:52;;;;;;;19.85;16.73;;;22.50;32.00;;;;;;5051950;28;20105;-35
2022/03/25 05:56:20;;;;;;;19.60;16.92;;;22.50;31.80;;;;;;5053069;28;20017;-35
2022/03/25 05:58:45;;;;;;;22.02;17.55;;;22.50;31.70;;;;;;5052940;28;20057;-36
2022/03/25 06:01:13;;;;;;;19.10;15.93;;;22.60;31.70;;;;;;5052916;28;20064;-36
2022/03/25 06:03:38;;;;;;;19.92;16.55;;;22.70;31.60;;;;;;5051772;28;20502;-35
2022/03/25 06:06:05;;;;;;;19.42;15.85;;;22.70;31.50;;;;;;5053030;28;20017;-35
2022/03/25 06:08:32;;;;;;;18.88;16.88;;;23.00;31.30;;;;;;5053462;28;20050;-35
2022/03/25 06:10:59;;;;;;;19.00;15.30;;;23.20;30.80;;;;;;5053200;28;20017;-36
2022/03/25 06:13:28;;;;;;;17.70;15.80;;;23.50;30.20;;;;;;5053459;28;20025;-35
2022/03/25 06:15:54;;;;;;;17.90;15.97;;;23.80;29.90;;;;;;5052929;28;20009;-36
2022/03/25 06:18:21;;;;;;;18.42;15.82;;;24.20;29.60;;;;;;5052996;28;20044;-36
2022/03/25 06:20:47;;;;;;;19.15;16.13;;;24.40;29.30;;;;;;5052528;28;20075;-36
2022/03/25 06:23:13;;;;;;;17.60;15.27;;;24.30;29.20;;;;;;5052893;28;20087;-36
2022/03/25 06:25:40;;;;;;;19.42;16.08;;;24.20;29.40;;;;;;5052539;28;20023;-37
2022/03/25 06:28:07;;;;;;;19.73;15.35;;;24.10;29.40;;;;;;5051639;28;20147;-38
2022/03/25 06:30:37;;;;;;;18.63;14.90;;;24.20;29.40;;;;;;5052833;28;20110;-36
2022/03/25 06:33:04;;;;;;;18.55;15.07;;;24.20;29.40;;;;;;5052642;28;20686;-36
2022/03/25 06:35:30;;;;;;;18.17;15.20;;;24.20;29.80;;;;;;5052710;28;20072;-37
2022/03/25 06:37:56;;;;;;;18.70;15.25;;;24.30;29.30;;;;;;5051369;28;20017;-37
2022/03/25 06:40:22;;;;;;;20.45;15.45;;;24.30;29.30;;;;;;5052463;28;20036;-37
2022/03/25 06:42:49;;;;;;;17.05;14.60;;;24.30;29.30;;;;;;5052921;28;20040;-37
2022/03/25 06:45:15;;;;;;;17.98;15.20;;;24.40;29.20;;;;;;5052867;28;20033;-36
2022/03/25 06:47:41;;;;;;;16.52;14.10;;;24.50;29.10;;;;;;5052306;28;20037;-38
2022/03/25 06:50:08;;;;;;;17.10;14.18;;;24.50;29.00;;;;;;5052419;28;20613;-36
2022/03/25 06:52:35;;;;;;;18.00;14.32;;;24.60;29.00;;;;;;5052832;28;20013;-36
2022/03/25 06:55:00;;;;;;;17.02;14.73;;;24.60;29.00;;;;;;5051474;28;20031;-37
2022/03/25 06:57:26;;;;;;;15.65;13.98;;;24.70;29.00;;;;;;5051840;28;20013;-36
2022/03/25 06:59:53;;;;;;;16.75;13.90;;;24.70;28.90;;;;;;5052814;28;20043;-36
2022/03/25 07:02:19;;;;;;;17.17;14.40;;;24.80;28.80;;;;;;5052228;28;20047;-37
2022/03/25 07:04:45;;;;;;;17.13;13.95;;;24.90;28.70;;;;;;5050888;28;20112;-37
2022/03/25 07:07:12;;;;;;;16.67;13.82;;;25.00;28.70;;;;;;5054118;28;20078;-37
2022/03/25 07:09:38;;;;;;;15.95;13.90;;;25.00;28.60;;;;;;5054744;28;20483;-36
2022/03/25 07:12:05;;;;;;;18.02;13.95;;;25.10;28.50;;;;;;5056064;28;20089;-35
2022/03/25 07:14:31;;;;;;;17.63;14.65;;;25.20;28.50;;;;;;5055471;28;20698;-36
2022/03/25 07:16:58;;;;;;;15.65;13.60;;;25.30;28.40;;;;;;5054796;28;20040;-36
2022/03/25 07:19:25;;;;;;;15.13;13.40;;;25.30;28.30;;;;;;5054086;28;20162;-36
2022/03/25 07:21:54;;;;;;;16.90;14.05;;;25.40;28.20;;;;;;5054761;28;20483;-35
2022/03/25 07:24:21;;;;;;;49.70;23.45;;;25.30;28.40;;;;;;5053681;28;20495;-35
2022/03/25 07:26:47;;;;;;;61.92;25.52;;;22.80;31.90;;;;;;5055342;28;20017;-36
2022/03/25 07:29:15;;;;;;;45.75;23.20;;;21.50;34.30;;;;;;5056268;28;20048;-35
2022/03/25 07:31:41;;;;;;;40.33;21.83;;;21.40;35.40;;;;;;5056170;28;20013;-35
2022/03/25 07:34:07;;;;;;;41.70;21.33;;;21.40;35.70;;;;;;5054218;28;20075;-35
2022/03/25 07:36:33;;;;;;;38.47;20.25;;;22.00;35.10;;;;;;5055532;28;20166;-36
2022/03/25 07:38:59;;;;;;;38.78;19.30;;;22.40;34.50;;;;;;5055248;28;20023;-34
2022/03/25 07:41:25;;;;;;;35.38;19.65;;;22.00;34.50;;;;;;5055297;28;20108;-35
2022/03/25 07:43:52;;;;;;;39.22;20.30;;;22.20;34.50;;;;;;5055097;28;20017;-35
2022/03/25 07:46:17;;;;;;;28.70;18.73;;;22.20;33.90;;;;;;5054977;28;20084;-34
2022/03/25 07:48:43;;;;;;;34.30;19.00;;;22.50;33.70;;;;;;5053966;28;20060;-34
2022/03/25 07:51:12;;;;;;;36.75;22.40;;;22.60;33.40;;;;;;5053940;28;20048;-35
2022/03/25 07:53:38;;;;;;;31.02;20.98;;;22.50;32.00;;;;;;5055001;28;20494;-34
2022/03/25 07:56:04;;;;;;;36.03;20.92;;;22.20;33.20;;;;;;5055266;28;20036;-36
2022/03/25 07:58:30;;;;;;;36.60;21.85;;;22.40;32.40;;;;;;5054955;28;20032;-36
2022/03/25 08:00:56;;;;;;;30.92;19.80;;;22.10;32.80;;;;;;5055096;28;20029;-36
2022/03/25 08:03:22;;;;;;;29.40;19.65;;;22.20;33.00;;;;;;5055302;28;20146;-35
2022/03/25 08:05:52;;;;;;;34.90;21.40;;;22.10;33.20;;;;;;5055410;28;20466;-35
2022/03/25 08:08:20;;;;;;;31.65;20.92;;;22.50;32.40;;;;;;5053518;28;20020;-34
2022/03/25 08:10:47;;;;;;;34.20;19.97;;;22.70;31.80;;;;;;5054615;28;20467;-34
2022/03/25 08:13:13;;;;;;;36.30;20.63;;;22.70;31.40;;;;;;5054142;28;20533;-34
2022/03/25 08:15:39;;;;;;;35.13;21.80;;;22.20;32.60;;;;;;5054119;28;20017;-38
2022/03/25 08:18:13;;;;;;;48.00;23.52;;;22.40;31.00;;;;;;5052713;28;20471;-34
2022/03/25 08:20:41;;;;;;;38.88;23.35;;;22.40;31.10;;;;;;5053546;28;20040;-34
2022/03/25 08:27:48;;;;;;;41.88;22.13;;;22.30;31.50;;;;;;5054261;28;20077;-34
2022/03/25 08:28:55;;;;;;;76.55;22.30;;;23.40;30.30;;;;;;5054176;28;20028;-33
2022/03/25 08:31:21;;;;;;;35.08;20.58;;;23.80;30.00;;;;;;5054078;28;20395;-33
2022/03/25 08:33:47;;;;;;;32.53;19.85;;;23.80;29.80;;;;;;5054232;28;20029;-35
2022/03/25 08:36:17;;;;;;;35.03;20.70;;;23.90;29.50;;;;;;5053706;28;20558;-34
2022/03/25 08:38:43;;;;;;;32.60;20.52;;;24.10;29.40;;;;;;5053854;28;20105;-36
2022/03/25 08:41:08;;;;;;;32.92;21.27;;;24.10;29.20;;;;;;5052322;28;20144;-35
2022/03/25 08:43:34;;;;;;;37.60;20.65;;;24.20;29.10;;;;;;5052758;28;20017;-34
2022/03/25 08:46:00;;;;;;;29.00;20.73;;;24.20;29.10;;;;;;5053542;28;20052;-34
2022/03/25 08:48:26;;;;;;;37.55;23.20;;;24.30;28.80;;;;;;5053924;28;20009;-34
2022/03/25 08:50:53;;;;;;;29.55;20.85;;;24.20;27.90;;;;;;5053605;28;20024;-35
2022/03/25 08:53:18;;;;;;;32.65;20.25;;;23.90;29.10;;;;;;5053759;28;20036;-34
2022/03/25 08:55:45;;;;;;;30.70;20.75;;;24.10;28.90;;;;;;5053510;28;20490;-34
2022/03/25 08:58:11;;;;;;;32.20;20.35;;;24.20;28.70;;;;;;5053473;28;20013;-34
2022/03/25 09:01:02;;;;;;;34.75;20.40;;;24.40;28.40;;;;;;5021858;23;20069;-67
2022/03/25 09:03:30;;;;;;;36.40;20.45;;;24.60;28.10;;;;;;5015725;28;20125;-67
2022/03/25 09:08:56;;;;;;;32.03;18.92;;;24.60;27.80;;;;;;5015446;28;20133;-81
2022/03/25 09:11:23;;;;;;;32.63;17.45;;;24.60;27.90;;;;;;4999839;28;20025;-78
2022/03/25 09:13:50;;;;;;;36.80;18.58;;;24.70;27.80;;;;;;4966457;28;20087;-83
2022/03/25 09:16:19;;;;;;;35.30;19.20;;;24.70;27.30;;;;;;4984754;28;20018;-83
2022/03/25 09:18:45;;;;;;;34.25;18.17;;;24.80;27.10;;;;;;5001383;28;20018;-76
2022/03/25 09:21:14;;;;;;;32.20;18.40;;;24.80;26.70;;;;;;4983489;28;20018;-76
2022/03/25 09:23:40;;;;;;;36.17;16.90;;;24.90;26.40;;;;;;4983905;28;20045;-81
2022/03/25 09:26:07;;;;;;;26.77;15.70;;;24.90;26.20;;;;;;5017530;28;20064;-78
2022/03/25 09:28:33;;;;;;;31.60;16.98;;;25.00;26.00;;;;;;4984634;28;20069;-78
2022/03/25 09:30:59;;;;;;;28.10;16.30;;;24.90;25.80;;;;;;4983502;28;20033;-78
2022/03/25 09:33:26;;;;;;;24.75;15.43;;;24.90;25.80;;;;;;4983277;28;20045;-78
2022/03/25 09:35:52;;;;;;;26.02;15.07;;;25.00;25.70;;;;;;4983084;28;20068;-76
2022/03/25 09:38:18;;;;;;;26.83;15.40;;;25.10;25.60;;;;;;4998891;28;20420;-76
2022/03/25 09:40:46;;;;;;;26.88;14.63;;;25.10;25.50;;;;;;4999716;28;20491;-77
2022/03/25 09:43:13;;;;;;;24.58;14.20;;;25.10;25.40;;;;;;4983996;28;20033;-77
2022/03/25 09:45:40;;;;;;;24.10;14.93;;;25.10;25.20;;;;;;5000048;28;20085;-81
2022/03/25 09:48:09;;;;;;;23.33;13.82;;;25.10;25.00;;;;;;4999026;28;20089;-76
2022/03/25 09:50:40;;;;;;;22.38;12.52;;;25.00;24.60;;;;;;4984727;28;20030;-77
2022/03/25 09:53:07;;;;;;;18.30;11.52;;;25.10;24.30;;;;;;4985002;28;20025;-77
2022/03/25 09:55:43;;;;;;;17.42;11.02;;;25.20;24.20;;;;;;5000624;28;20018;-77
2022/03/25 09:58:22;;;;;;;18.15;10.80;;;25.10;23.80;;;;;;5001757;28;20076;-79
2022/03/25 10:00:52;;;;;;;17.13;10.75;;;25.00;23.50;;;;;;4989782;28;20117;-78
2022/03/25 10:03:39;;;;;;;20.42;10.27;;;25.00;23.40;;;;;;4989153;28;20020;-82
2022/03/25 10:06:11;;;;;;;17.08;9.98;;;24.90;23.10;;;;;;4991890;28;20085;-79
2022/03/25 10:08:38;;;;;;;16.23;9.68;;;25.00;22.90;;;;;;4999916;28;20401;-79
2022/03/25 10:11:31;;;;;;;24.80;12.32;;;25.00;22.80;;;;;;5000963;28;20018;-78
2022/03/25 10:14:29;;;;;;;25.67;13.93;;;24.00;25.10;;;;;;4986267;28;20026;-78
2022/03/25 10:16:55;;;;;;;24.95;12.93;;;22.70;25.10;;;;;;4975079;28;20010;-77
2022/03/25 10:19:22;;;;;;;22.95;13.20;;;22.60;25.40;;;;;;4992104;28;20022;-77
2022/03/25 10:21:49;;;;;;;25.60;12.02;;;22.50;25.60;;;;;;4993824;28;20039;-78
2022/03/25 10:24:18;;;;;;;23.50;11.65;;;22.30;26.20;;;;;;4997936;28;20030;-80
2022/03/25 10:26:45;;;;;;;22.63;11.55;;;22.60;26.40;;;;;;5000818;28;20053;-79
2022/03/25 10:29:23;;;;;;;25.42;12.80;;;22.80;26.20;;;;;;4984159;28;20042;-79
2022/03/25 10:32:09;;;;;;;26.05;12.45;;;21.80;26.90;;;;;;4984256;28;20061;-79
2022/03/25 10:34:38;;;;;;;23.98;12.25;;;21.60;27.40;;;;;;5016187;28;20022;-81
2022/03/25 10:37:09;;;;;;;25.23;13.60;;;21.90;27.30;;;;;;5000155;28;20030;-78
2022/03/25 10:39:37;;;;;;;29.92;12.48;;;21.90;26.50;;;;;;5000546;28;20007;-80
2022/03/25 10:42:05;;;;;;;23.95;12.65;;;21.70;27.30;;;;;;4986549;28;20019;-81
2022/03/25 10:44:38;;;;;;;24.45;13.07;;;21.30;27.40;;;;;;5020924;28;20095;-82
2022/03/25 10:47:17;;;;;;;25.42;13.93;;;21.10;27.50;;;;;;5004747;28;20049;-80
2022/03/25 10:49:46;;;;;;;25.58;14.50;;;20.80;27.20;;;;;;5021189;28;20011;-78
2022/03/25 10:52:25;;;;;;;24.65;14.73;;;20.80;27.50;;;;;;4988170;28;20018;-78
2022/03/25 10:55:11;;;;;;;26.65;14.23;;;21.00;27.20;;;;;;5004355;28;20016;-81
2022/03/25 10:57:51;;;;;;;25.95;14.43;;;21.10;27.70;;;;;;5019874;28;20070;-77
2022/03/25 11:00:17;;;;;;;27.15;14.45;;;21.00;26.60;;;;;;5003921;28;20022;-76
2022/03/25 11:02:46;;;;;;;25.35;13.00;;;21.40;26.00;;;;;;5003759;28;20045;-76
2022/03/25 11:05:13;;;;;;;22.93;13.03;;;21.50;25.90;;;;;;5020247;28;20114;-76
2022/03/25 11:07:39;;;;;;;23.25;13.18;;;21.70;25.80;;;;;;5000575;28;20047;-80
2022/03/25 11:10:05;;;;;;;25.73;13.48;;;21.70;25.90;;;;;;4968402;28;20067;-77
2022/03/25 11:12:32;;;;;;;23.70;12.98;;;22.00;25.00;;;;;;4984955;28;20051;-78
2022/03/25 11:14:59;;;;;;;22.13;12.63;;;21.80;25.00;;;;;;5000718;28;20106;-77
2022/03/25 11:17:28;;;;;;;20.45;13.63;;;21.70;24.90;;;;;;5000286;28;20023;-77
2022/03/25 11:19:55;;;;;;;24.10;13.77;;;21.90;24.60;;;;;;5000456;28;20086;-76
2022/03/25 11:22:21;;;;;;;27.05;14.93;;;22.10;24.50;;;;;;5000239;28;20129;-77
2022/03/25 11:24:50;;;;;;;25.27;15.80;;;22.20;24.40;;;;;;4984492;28;20019;-77
2022/03/25 11:27:22;;;;;;;29.45;16.50;;;22.00;24.40;;;;;;4984145;28;20022;-76
2022/03/25 11:29:49;;;;;;;24.50;15.68;;;22.10;24.70;;;;;;5000276;28;20015;-78
2022/03/25 11:32:15;;;;;;;26.65;17.17;;;22.00;24.70;;;;;;4984656;28;20090;-77
2022/03/25 11:34:43;;;;;;;25.00;14.45;;;21.90;24.70;;;;;;4984292;28;20039;-76
2022/03/25 11:37:33;;;;;;;22.90;14.82;;;21.90;24.70;;;;;;4983909;28;20078;-77
2022/03/25 11:40:15;;;;;;;21.90;13.88;;;21.90;24.60;;;;;;4994854;28;20063;-77
2022/03/25 11:42:41;;;;;;;23.92;14.15;;;21.90;24.40;;;;;;4994860;28;20094;-76
2022/03/25 11:45:37;;;;;;;22.27;13.05;;;21.70;24.40;;;;;;4984054;28;20019;-77
2022/03/25 11:48:04;;;;;;;33.42;13.75;;;21.60;24.50;;;;;;4983557;28;20030;-76
2022/03/25 11:50:31;;;;;;;27.85;14.23;;;21.00;27.10;;;;;;4984053;28;20076;-77
2022/03/25 11:52:58;;;;;;;30.58;14.63;;;20.90;27.10;;;;;;4968813;28;20033;-75
2022/03/25 11:55:24;;;;;;;25.95;13.13;;;21.10;26.50;;;;;;4951730;28;20019;-79
2022/03/25 11:57:50;;;;;;;25.73;14.40;;;21.20;26.10;;;;;;4968437;28;20053;-80
2022/03/25 12:00:26;;;;;;;25.88;13.90;;;21.30;25.80;;;;;;4954339;28;20085;-78
2022/03/25 12:03:03;;;;;;;25.55;14.27;;;21.40;25.80;;;;;;4968109;28;20046;-76
2022/03/25 12:05:29;;;;;;;29.65;13.50;;;21.30;25.00;;;;;;4965096;28;20011;-79
2022/03/25 12:08:23;;;;;;;24.45;13.77;;;21.20;25.40;;;;;;4995510;28;20048;-78
2022/03/25 12:10:50;;;;;;;21.60;13.00;;;21.30;25.40;;;;;;5006085;28;20029;-80
2022/03/25 12:13:16;;;;;;;22.45;11.65;;;21.10;26.00;;;;;;4974380;28;20050;-86
2022/03/25 12:15:43;;;;;;;23.40;12.27;;;21.40;26.20;;;;;;4969670;28;20018;-81
2022/03/25 12:18:40;;;;;;;19.88;12.20;;;21.20;24.90;;;;;;4987892;28;20023;-79
2022/03/25 12:21:12;;;;;;;24.58;12.65;;;21.20;25.10;;;;;;5002719;28;20026;-79
2022/03/25 12:23:39;;;;;;;19.38;11.70;;;21.10;25.70;;;;;;5001940;28;20026;-80
2022/03/25 12:26:05;;;;;;;25.17;12.18;;;21.10;25.00;;;;;;4984184;28;20290;-80
2022/03/25 12:28:31;;;;;;;19.90;11.55;;;21.10;24.80;;;;;;4981104;28;20025;-79
2022/03/25 12:31:05;;;;;;;25.60;11.38;;;21.10;24.80;;;;;;4997696;28;20026;-80
2022/03/25 12:33:31;;;;;;;17.00;10.75;;;21.10;23.60;;;;;;4979738;28;20440;-78
2022/03/25 12:36:00;;;;;;;21.33;9.15;;;20.60;22.30;;;;;;4978983;28;20022;-79
2022/03/25 12:38:26;;;;;;;28.13;10.32;;;20.70;22.70;;;;;;4995632;28;20018;-76